This is the latest recevied weather packets stored in our database for station/object HB4LO-13. If no packets are shown the sender has not sent any weather packets the latest 1 day(s).
| Time | Temp. | Humidity | Pressure | Rain* | Wind** | Luminosity | Snow |
|---|---|---|---|---|---|---|---|
| 1778001486 | 15.56° C | 62% | - | 0 mm | 1.79 m/s, 178° | - | - |
| 1778001426 | 15.56° C | 62% | - | 0 mm | 1.34 m/s, 175° | - | - |
| 1778001366 | 15.56° C | 62% | - | 0 mm | 1.34 m/s, 174° | - | - |
| 1778001306 | 16.11° C | 62% | - | 0 mm | 1.34 m/s, 171° | - | - |
| 1778001246 | 16.11° C | 62% | - | 0 mm | 0.89 m/s, 186° | - | - |
| 1778001186 | 16.11° C | 62% | - | 0 mm | 1.34 m/s, 172° | - | - |
| 1778001126 | 16.11° C | 62% | - | 0 mm | 0.89 m/s, 182° | - | - |
| 1778001066 | 16.11° C | 62% | - | 0 mm | 0.45 m/s, 189° | - | - |
| 1778001006 | 16.11° C | 62% | - | 0 mm | 0.45 m/s, 185° | - | - |
| 1778000946 | 16.11° C | 62% | - | 0 mm | 0 m/s | - | - |
| 1778000886 | 16.11° C | 62% | - | 0 mm | 0.45 m/s, 174° | - | - |
| 1778000826 | 16.11° C | 62% | - | 0 mm | 0.45 m/s, 175° | - | - |
| 1778000766 | 16.11° C | 62% | - | 0 mm | 0.45 m/s, 178° | - | - |
| 1778000706 | 16.11° C | 62% | - | 0 mm | 0.45 m/s, 183° | - | - |
| 1778000646 | 16.11° C | 62% | - | 0 mm | 0 m/s | - | - |
| 1778000586 | 16.11° C | 62% | - | 0 mm | 0 m/s | - | - |
| 1778000526 | 16.11° C | 62% | - | 0 mm | 0 m/s | - | - |
| 1778000466 | 16.11° C | 62% | - | 0 mm | 0 m/s | - | - |
| 1778000406 | 16.11° C | 62% | - | 0 mm | 0.89 m/s, 184° | - | - |
| 1778000346 | 16.11° C | 62% | - | 0 mm | 1.34 m/s, 184° | - | - |
| 1778000286 | 16.11° C | 62% | - | 0 mm | 0.89 m/s, 186° | - | - |
| 1778000228 | 16.11° C | 62% | - | 0 mm | 0.89 m/s, 186° | - | - |
| 1778000166 | 16.11° C | 62% | - | 0 mm | 1.34 m/s, 184° | - | - |
| 1778000106 | 16.11° C | 62% | - | 0 mm | 0.89 m/s, 185° | - | - |
| 1778000046 | 16.11° C | 62% | - | 0 mm | 0.89 m/s, 186° | - | - |
* Rain latest hour (hover to see other rain measurements)
** Current wind speed in m/s (hover to see current wind gust speed)